createdAt,value
2019-02-05T00:02:14.630Z,2.30
2019-02-05T00:05:33.550Z,2.20
2019-02-05T00:08:08.354Z,2.20
2019-02-05T00:10:38.377Z,2.20
2019-02-05T00:13:08.122Z,2.10
2019-02-05T00:15:38.264Z,2.10
2019-02-05T00:18:08.138Z,2.10
2019-02-05T00:20:38.293Z,2.10
2019-02-05T00:23:08.873Z,2.00
2019-02-05T00:25:51.339Z,2.00
2019-02-05T00:28:24.371Z,2.00
2019-02-05T00:31:17.993Z,2.10
2019-02-05T00:33:54.508Z,2.10
2019-02-05T00:36:53.892Z,2.10
2019-02-05T00:40:06.016Z,2.10
2019-02-05T00:42:45.134Z,2.00
2019-02-05T00:45:44.949Z,2.10
2019-02-05T00:48:32.191Z,2.10
2019-02-05T00:51:27.576Z,2.10
2019-02-05T00:54:41.863Z,2.10
2019-02-05T00:57:37.028Z,2.20
2019-02-05T01:00:21.579Z,2.20
2019-02-05T01:03:05.905Z,2.20
2019-02-05T01:05:52.845Z,2.20
2019-02-05T01:08:26.416Z,2.20
2019-02-05T01:10:59.844Z,2.20
2019-02-05T01:13:31.884Z,2.20
2019-02-05T01:16:07.619Z,2.30
2019-02-05T01:18:43.775Z,2.30
2019-02-05T01:21:25.597Z,2.30
2019-02-05T01:23:56.683Z,2.30
2019-02-05T01:26:30.963Z,2.30
2019-02-05T01:29:03.939Z,2.30
2019-02-05T01:31:36.263Z,2.30
2019-02-05T01:34:12.055Z,2.30
2019-02-05T01:36:46.052Z,2.30
2019-02-05T01:39:21.894Z,2.40
2019-02-05T01:42:33.958Z,2.40
2019-02-05T01:45:20.150Z,2.30
2019-02-05T01:47:57.102Z,2.40
2019-02-05T01:51:12.264Z,2.30
2019-02-05T01:54:14.532Z,2.30
2019-02-05T01:57:21.246Z,2.40
2019-02-05T01:59:51.185Z,2.30
2019-02-05T02:02:31.541Z,2.40
2019-02-05T02:05:02.247Z,2.40
2019-02-05T02:07:32.673Z,2.40
2019-02-05T02:10:03.796Z,2.30
2019-02-05T02:12:36.824Z,2.40
2019-02-05T02:15:12.143Z,2.40
2019-02-05T02:17:44.833Z,2.40
2019-02-05T02:20:19.739Z,2.40
2019-02-05T02:22:52.343Z,2.40
2019-02-05T02:25:22.391Z,2.40
2019-02-05T02:27:54.250Z,2.40
2019-02-05T02:30:30.133Z,2.40
2019-02-05T02:32:59.988Z,2.40
2019-02-05T02:35:30.087Z,2.40
2019-02-05T02:38:00.587Z,2.40
2019-02-05T02:40:32.160Z,2.40
2019-02-05T02:43:03.659Z,2.50
2019-02-05T02:45:33.702Z,2.50
2019-02-05T02:48:09.079Z,2.50
2019-02-05T02:50:49.903Z,2.50
2019-02-05T02:53:21.818Z,2.50
2019-02-05T02:55:56.249Z,2.50
2019-02-05T02:58:29.330Z,2.50
2019-02-05T03:01:20.658Z,2.50
2019-02-05T03:03:51.018Z,2.60
2019-02-05T03:06:21.512Z,2.50
2019-02-05T03:08:51.325Z,2.60
2019-02-05T03:11:21.193Z,2.60
2019-02-05T03:13:51.171Z,2.60
2019-02-05T03:16:21.130Z,2.60
2019-02-05T03:18:50.996Z,2.60
2019-02-05T03:21:21.360Z,2.60
2019-02-05T03:23:51.891Z,2.70
2019-02-05T03:26:22.574Z,2.70
2019-02-05T03:28:53.397Z,2.70
2019-02-05T03:31:23.762Z,2.70
2019-02-05T03:33:54.093Z,2.70
2019-02-05T03:36:25.587Z,2.70
2019-02-05T03:38:56.519Z,2.70
2019-02-05T03:41:28.648Z,2.70
2019-02-05T03:44:02.190Z,2.80
2019-02-05T03:49:59.169Z,2.80
2019-02-05T03:52:59.046Z,2.70
2019-02-05T03:55:52.659Z,2.80
2019-02-05T03:59:07.633Z,2.80
2019-02-05T04:02:33.549Z,2.80
2019-02-05T04:05:58.324Z,2.80
2019-02-05T04:09:21.079Z,2.80
2019-02-05T04:12:41.775Z,2.80
2019-02-05T04:16:20.163Z,2.80
2019-02-05T04:34:54.313Z,2.90
2019-02-05T04:53:04.563Z,2.90
2019-02-05T06:27:07.218Z,3.30
2019-02-05T06:33:16.412Z,3.30
2019-02-05T06:35:48.076Z,3.30
2019-02-05T06:38:40.466Z,3.40
2019-02-05T06:41:43.779Z,3.40
2019-02-05T06:55:47.238Z,3.50
2019-02-05T06:58:45.938Z,3.50
2019-02-05T07:20:46.542Z,3.70
2019-02-05T07:31:51.197Z,3.80
2019-02-05T07:34:37.624Z,3.80
2019-02-05T07:37:44.617Z,3.80
2019-02-05T08:18:55.774Z,3.90
2019-02-05T08:47:51.468Z,4.00
2019-02-05T08:50:33.575Z,4.00
2019-02-05T08:53:21.747Z,4.10
2019-02-05T08:56:35.731Z,4.10
2019-02-05T08:59:33.069Z,4.10
2019-02-05T09:02:21.198Z,4.10
2019-02-05T09:04:55.421Z,4.20
2019-02-05T09:07:33.338Z,4.20
2019-02-05T09:10:27.605Z,4.20
2019-02-05T09:13:42.210Z,4.30
2019-02-05T09:16:40.676Z,4.30
2019-02-05T09:19:23.620Z,4.30
2019-02-05T09:22:09.928Z,4.40
2019-02-05T09:24:50.200Z,4.40
2019-02-05T09:27:49.749Z,4.40
2019-02-05T09:30:40.091Z,4.40
2019-02-05T09:33:51.579Z,4.40
2019-02-05T09:36:22.435Z,4.40
2019-02-05T09:38:52.500Z,4.40
2019-02-05T09:41:24.696Z,4.50
2019-02-05T09:43:55.506Z,4.50
2019-02-05T09:46:31.481Z,4.60
2019-02-05T09:49:10.098Z,4.60
2019-02-05T09:51:40.980Z,4.70
2019-02-05T09:54:12.212Z,4.80
2019-02-05T09:56:45.394Z,4.80
2019-02-05T09:59:27.111Z,4.80
2019-02-05T10:01:56.992Z,4.90
2019-02-05T10:05:01.685Z,4.90
2019-02-05T10:07:34.566Z,4.90
2019-02-05T10:10:09.456Z,4.90
2019-02-05T10:12:40.341Z,4.90
2019-02-05T10:15:21.369Z,4.90
2019-02-05T10:17:53.369Z,4.90
2019-02-05T10:20:33.757Z,4.80
2019-02-05T10:23:08.045Z,4.80
2019-02-05T10:25:39.489Z,4.80
2019-02-05T10:28:13.221Z,4.80
2019-02-05T10:30:46.977Z,4.80
2019-02-05T10:33:54.927Z,4.80
2019-02-05T10:36:32.227Z,4.80
2019-02-05T10:42:13.354Z,4.80
2019-02-05T10:44:47.316Z,4.70
2019-02-05T10:47:31.503Z,4.70
2019-02-05T10:50:05.427Z,4.70
2019-02-05T10:52:42.643Z,4.70
2019-02-05T10:55:16.166Z,4.70
2019-02-05T10:57:53.541Z,4.60
2019-02-05T11:00:31.011Z,4.70
2019-02-05T11:03:19.638Z,4.70
2019-02-05T11:05:51.353Z,4.70
2019-02-05T11:08:27.857Z,4.70
2019-02-05T11:11:00.966Z,4.70
2019-02-05T11:13:32.874Z,4.70
2019-02-05T11:16:07.769Z,4.80
2019-02-05T11:18:44.602Z,4.80
2019-02-05T11:21:24.834Z,4.80
2019-02-05T11:23:58.404Z,4.80
2019-02-05T11:26:53.452Z,4.80
2019-02-05T11:29:52.630Z,4.80
2019-02-05T11:32:43.331Z,4.80
2019-02-05T11:35:18.107Z,4.80
2019-02-05T11:37:56.348Z,4.80
2019-02-05T11:40:34.214Z,4.80
2019-02-05T11:43:09.103Z,4.80
2019-02-05T11:45:59.603Z,4.80
2019-02-05T11:48:33.162Z,4.80
2019-02-05T11:51:05.318Z,4.80
2019-02-05T11:53:40.541Z,4.90
2019-02-05T11:56:19.213Z,4.90
2019-02-05T11:58:50.025Z,5.00
2019-02-05T12:01:24.263Z,5.00
2019-02-05T12:04:02.992Z,5.10
2019-02-05T12:06:36.042Z,5.20
2019-02-05T12:09:35.588Z,5.30
2019-02-05T12:12:06.643Z,5.30
2019-02-05T12:14:37.317Z,5.40
2019-02-05T12:17:07.304Z,5.40
2019-02-05T12:19:41.555Z,5.50
2019-02-05T12:22:13.844Z,5.50
2019-02-05T12:24:44.176Z,5.50
2019-02-05T12:27:14.078Z,5.50
2019-02-05T12:29:45.632Z,5.60
2019-02-05T12:32:16.030Z,5.60
2019-02-05T12:34:46.427Z,5.60
2019-02-05T12:37:16.804Z,5.60
2019-02-05T12:39:46.802Z,5.60
2019-02-05T12:42:17.925Z,5.60
2019-02-05T12:44:47.829Z,5.60
2019-02-05T12:47:20.166Z,5.60
2019-02-05T12:50:29.081Z,5.60
2019-02-05T12:53:01.045Z,5.70
2019-02-05T12:55:37.043Z,5.70
2019-02-05T12:58:07.357Z,5.70
2019-02-05T13:00:42.742Z,5.70
2019-02-05T13:03:16.935Z,5.70
2019-02-05T13:05:54.780Z,5.70
2019-02-05T13:08:35.085Z,5.80
2019-02-05T13:11:08.110Z,5.80
2019-02-05T13:13:44.292Z,5.80
2019-02-05T13:16:14.084Z,5.80
2019-02-05T13:18:45.373Z,5.80
2019-02-05T13:21:17.572Z,5.80
2019-02-05T13:23:47.868Z,5.90
2019-02-05T13:26:19.974Z,5.90
2019-02-05T13:28:50.017Z,5.90
2019-02-05T13:31:20.852Z,5.90
2019-02-05T13:33:51.005Z,5.90
2019-02-05T13:36:22.753Z,5.90
2019-02-05T13:38:53.034Z,6.00
2019-02-05T13:41:23.211Z,6.00
2019-02-05T13:43:53.197Z,6.00
2019-02-05T13:46:23.826Z,6.00
2019-02-05T13:48:53.789Z,6.10
2019-02-05T13:51:24.041Z,6.00
2019-02-05T13:53:54.414Z,6.00
2019-02-05T13:56:24.500Z,6.00
2019-02-05T13:58:54.618Z,6.00
2019-02-05T14:01:27.515Z,6.00
2019-02-05T14:04:00.382Z,6.00
2019-02-05T14:06:30.174Z,6.00
2019-02-05T14:09:10.411Z,6.00
2019-02-05T14:11:31.696Z,6.00
2019-02-05T14:14:01.521Z,6.00
2019-02-05T14:16:31.318Z,6.00
2019-02-05T14:19:01.251Z,6.00
2019-02-05T14:21:30.836Z,6.00
2019-02-05T14:24:00.633Z,6.00
2019-02-05T14:26:30.437Z,5.90
2019-02-05T14:29:00.262Z,6.00
2019-02-05T14:31:31.628Z,5.90
2019-02-05T14:34:01.656Z,5.90
2019-02-05T14:36:31.710Z,5.90
2019-02-05T14:39:01.579Z,5.90
2019-02-05T14:41:31.397Z,5.90
2019-02-05T14:44:01.173Z,5.90
2019-02-05T14:46:31.018Z,5.90
2019-02-05T14:49:00.825Z,5.90
2019-02-05T14:51:31.189Z,5.80
2019-02-05T14:54:01.055Z,5.80
2019-02-05T14:56:32.430Z,5.80
2019-02-05T14:59:02.265Z,5.80
2019-02-05T15:01:42.458Z,5.80
2019-02-05T15:04:03.763Z,5.80
2019-02-05T15:06:33.595Z,5.70
2019-02-05T15:09:03.967Z,5.70
2019-02-05T15:11:33.752Z,5.70
2019-02-05T15:14:03.475Z,5.70
2019-02-05T15:16:33.323Z,5.70
2019-02-05T15:19:03.265Z,5.60
2019-02-05T15:21:33.243Z,5.60
2019-02-05T15:24:02.995Z,5.60
2019-02-05T15:26:32.842Z,5.60
2019-02-05T15:29:02.696Z,5.60
2019-02-05T15:31:32.407Z,5.50
2019-02-05T15:34:05.129Z,5.50
2019-02-05T15:36:37.011Z,5.50
2019-02-05T15:39:13.656Z,5.50
2019-02-05T15:41:43.430Z,5.40
2019-02-05T15:44:13.719Z,5.40
2019-02-05T15:46:43.477Z,5.40
2019-02-05T15:49:13.236Z,5.40
2019-02-05T15:51:43.101Z,5.30
2019-02-05T15:54:13.109Z,5.30
2019-02-05T15:56:44.516Z,5.30
2019-02-05T15:59:14.442Z,5.30
2019-02-05T16:01:44.334Z,5.30
2019-02-05T16:04:14.136Z,5.20
2019-02-05T16:06:45.166Z,5.20
2019-02-05T16:09:15.281Z,5.20
2019-02-05T16:11:45.178Z,5.20
2019-02-05T16:14:15.145Z,5.20
2019-02-05T16:16:45.281Z,5.20
2019-02-05T16:19:15.176Z,5.10
2019-02-05T16:21:45.224Z,5.10
2019-02-05T16:24:15.166Z,5.10
2019-02-05T16:26:45.429Z,5.10
2019-02-05T16:29:15.424Z,5.00
2019-02-05T16:31:45.359Z,5.00
2019-02-05T16:34:15.284Z,5.00
2019-02-05T16:36:45.084Z,4.90
2019-02-05T16:39:15.114Z,4.90
2019-02-05T16:41:45.344Z,4.90
2019-02-05T16:44:15.456Z,4.90
2019-02-05T16:46:46.324Z,4.90
2019-02-05T16:49:16.253Z,4.90
2019-02-05T16:51:46.077Z,4.90
2019-02-05T16:54:15.955Z,4.90
2019-02-05T16:56:45.915Z,4.90
2019-02-05T16:59:15.794Z,4.80
2019-02-05T17:01:46.922Z,4.90
2019-02-05T17:04:16.928Z,4.80
2019-02-05T17:06:46.939Z,4.80
2019-02-05T17:09:17.785Z,4.80
2019-02-05T17:11:49.724Z,4.80
2019-02-05T17:14:20.891Z,4.80
2019-02-05T17:16:53.182Z,4.80
2019-02-05T17:19:26.735Z,4.70
2019-02-05T17:21:57.179Z,4.70
2019-02-05T17:24:27.126Z,4.80
2019-02-05T17:26:58.743Z,4.80
2019-02-05T17:29:28.505Z,4.80
2019-02-05T17:31:58.358Z,4.80
2019-02-05T17:34:40.534Z,4.80
2019-02-05T17:37:13.117Z,4.80
2019-02-05T17:39:43.063Z,4.80
2019-02-05T17:42:12.842Z,4.70
2019-02-05T17:44:42.728Z,4.80
2019-02-05T17:47:13.084Z,4.80
2019-02-05T17:49:43.130Z,4.80
2019-02-05T17:52:13.256Z,4.80
2019-02-05T17:54:45.010Z,4.80
2019-02-05T17:57:14.743Z,4.80
2019-02-05T17:59:45.056Z,4.80
2019-02-05T18:02:20.219Z,4.70
2019-02-05T18:04:56.222Z,4.70
2019-02-05T18:07:29.504Z,4.70
2019-02-05T18:10:00.993Z,4.70
2019-02-05T18:12:31.526Z,4.70
2019-02-05T18:15:01.631Z,4.70
2019-02-05T18:17:31.465Z,4.70
2019-02-05T18:20:01.230Z,4.70
2019-02-05T18:22:31.092Z,4.70
2019-02-05T18:25:08.838Z,4.70
2019-02-05T18:27:38.783Z,4.70
2019-02-05T18:30:14.480Z,4.70
2019-02-05T18:32:44.372Z,4.60
2019-02-05T18:35:14.254Z,4.70
2019-02-05T18:37:44.132Z,4.60
2019-02-05T18:40:15.276Z,4.60
2019-02-05T18:42:45.201Z,4.60
2019-02-05T18:45:16.171Z,4.60
2019-02-05T18:47:46.546Z,4.60
2019-02-05T18:50:21.965Z,4.60
2019-02-05T18:52:55.809Z,4.60
2019-02-05T18:55:27.998Z,4.60
2019-02-05T18:58:08.489Z,4.60
2019-02-05T19:00:34.765Z,4.60
2019-02-05T19:03:35.259Z,4.60
2019-02-05T19:06:05.187Z,4.50
2019-02-05T19:08:35.420Z,4.50
2019-02-05T19:11:05.494Z,4.40
2019-02-05T19:13:35.739Z,4.40
2019-02-05T19:16:07.866Z,4.40
2019-02-05T19:18:37.849Z,4.40
2019-02-05T19:21:07.767Z,4.30
2019-02-05T19:23:37.621Z,4.30
2019-02-05T19:26:18.119Z,4.30
2019-02-05T19:28:47.912Z,4.30
2019-02-05T19:31:26.404Z,4.30
2019-02-05T19:33:56.173Z,4.30
2019-02-05T19:36:26.843Z,4.30
2019-02-05T19:38:56.843Z,4.30
2019-02-05T19:41:26.802Z,4.30
2019-02-05T19:43:56.883Z,4.20
2019-02-05T19:46:43.998Z,4.20
2019-02-05T19:49:41.967Z,4.20
2019-02-05T19:52:12.569Z,4.10
2019-02-05T19:54:45.440Z,4.10
2019-02-05T19:57:15.474Z,4.10
2019-02-05T19:59:45.947Z,4.10
2019-02-05T20:02:15.825Z,4.10
2019-02-05T20:04:46.329Z,4.10
2019-02-05T20:07:16.154Z,4.10
2019-02-05T20:09:45.961Z,4.00
2019-02-05T20:12:15.802Z,4.00
2019-02-05T20:14:46.318Z,4.00
2019-02-05T20:17:16.099Z,4.10
2019-02-05T20:19:45.879Z,4.10
2019-02-05T20:22:15.795Z,4.10
2019-02-05T20:24:45.709Z,4.10
2019-02-05T20:27:15.532Z,4.10
2019-02-05T20:29:45.654Z,4.10
2019-02-05T20:32:15.542Z,4.10
2019-02-05T20:34:45.407Z,4.10
2019-02-05T20:37:15.501Z,4.00
2019-02-05T20:39:45.244Z,4.00
2019-02-05T20:42:15.080Z,4.00
2019-02-05T20:44:44.988Z,4.10
2019-02-05T20:47:14.887Z,4.10
2019-02-05T20:49:44.658Z,4.10
2019-02-05T20:52:14.560Z,4.10
2019-02-05T20:54:44.663Z,4.10
2019-02-05T20:57:14.563Z,4.10
2019-02-05T20:59:44.772Z,4.10
2019-02-05T21:02:15.511Z,4.00
2019-02-05T21:04:48.637Z,4.00
2019-02-05T21:07:19.305Z,4.00
2019-02-05T21:09:49.202Z,4.00
2019-02-05T21:12:19.057Z,4.00
2019-02-05T21:14:49.339Z,4.10
2019-02-05T21:17:19.305Z,4.10
2019-02-05T21:19:49.324Z,4.10
2019-02-05T21:22:19.587Z,4.10
2019-02-05T21:24:49.339Z,4.10
2019-02-05T21:27:21.644Z,4.10
2019-02-05T21:29:51.712Z,4.10
2019-02-05T21:32:21.673Z,4.10
2019-02-05T21:34:51.464Z,4.10
2019-02-05T21:37:21.616Z,4.10
2019-02-05T21:40:02.030Z,4.10
2019-02-05T21:42:23.248Z,4.10
2019-02-05T21:44:53.492Z,4.10
2019-02-05T21:47:23.275Z,4.10
2019-02-05T21:49:53.398Z,4.10
2019-02-05T21:52:23.207Z,4.10
2019-02-05T21:54:53.015Z,4.10
2019-02-05T21:57:22.930Z,4.10
2019-02-05T21:59:52.938Z,4.10
2019-02-05T22:02:22.956Z,4.00
2019-02-05T22:04:52.983Z,4.00
2019-02-05T22:07:22.910Z,4.00
2019-02-05T22:09:52.809Z,4.00
2019-02-05T22:12:22.716Z,4.00
2019-02-05T22:14:52.617Z,4.00
2019-02-05T22:17:22.437Z,3.90
2019-02-05T22:19:52.364Z,3.90
2019-02-05T22:22:22.332Z,3.90
2019-02-05T22:24:52.075Z,4.00
2019-02-05T22:27:22.100Z,4.00
2019-02-05T22:29:52.061Z,3.90
2019-02-05T22:32:22.305Z,3.90
2019-02-05T22:34:52.071Z,3.90
2019-02-05T22:37:21.960Z,3.90
2019-02-05T22:39:51.734Z,3.90
2019-02-05T22:42:21.566Z,3.90
2019-02-05T22:44:51.478Z,4.00
2019-02-05T22:47:21.551Z,4.00
2019-02-05T22:49:51.343Z,3.90
2019-02-05T22:52:21.412Z,4.00
2019-02-05T22:54:51.603Z,4.00
2019-02-05T22:57:21.678Z,4.00
2019-02-05T22:59:51.360Z,3.90
2019-02-05T23:02:22.734Z,4.00
2019-02-05T23:05:14.434Z,4.00
2019-02-05T23:07:44.400Z,4.00
2019-02-05T23:11:03.081Z,4.00
2019-02-05T23:13:27.100Z,4.00
2019-02-05T23:15:57.157Z,4.00
2019-02-05T23:18:26.972Z,4.00
2019-02-05T23:20:56.792Z,3.90
2019-02-05T23:23:26.791Z,4.00
2019-02-05T23:25:56.558Z,3.90
2019-02-05T23:28:26.574Z,4.00
2019-02-05T23:30:56.526Z,3.90
2019-02-05T23:33:26.254Z,3.90
2019-02-05T23:35:56.110Z,3.90
2019-02-05T23:38:29.489Z,3.80
2019-02-05T23:40:57.303Z,3.80
2019-02-05T23:43:27.902Z,3.80
2019-02-05T23:46:01.281Z,3.80
2019-02-05T23:48:29.069Z,3.80
2019-02-05T23:50:58.852Z,3.70
2019-02-05T23:53:28.703Z,3.70
2019-02-05T23:55:58.500Z,3.70
2019-02-05T23:58:29.951Z,3.70
